sensor_id;sensor_type;location;lat;lon;timestamp;P1;durP1;ratioP1;P2;durP2;ratioP2
40669;SDS011;26355;45.528;9.234;2022-10-04T00:00:27;29.67;;;19.02;;
40669;SDS011;26355;45.528;9.234;2022-10-04T00:05:34;32.05;;;20.63;;
40669;SDS011;26355;45.528;9.234;2022-10-04T00:11:15;29.38;;;17.98;;
40669;SDS011;26355;45.528;9.234;2022-10-04T00:13:44;29.40;;;19.48;;
40669;SDS011;26355;45.528;9.234;2022-10-04T00:16:20;30.25;;;19.33;;
40669;SDS011;26355;45.528;9.234;2022-10-04T00:18:59;30.27;;;18.65;;
40669;SDS011;26355;45.528;9.234;2022-10-04T00:22:07;28.35;;;18.17;;
40669;SDS011;26355;45.528;9.234;2022-10-04T00:29:39;29.20;;;19.98;;
40669;SDS011;26355;45.528;9.234;2022-10-04T00:37:00;29.88;;;18.40;;
40669;SDS011;26355;45.528;9.234;2022-10-04T00:44:48;31.73;;;19.65;;
40669;SDS011;26355;45.528;9.234;2022-10-04T00:50:42;29.95;;;19.92;;
40669;SDS011;26355;45.528;9.234;2022-10-04T00:52:55;34.88;;;20.38;;
40669;SDS011;26355;45.528;9.234;2022-10-04T00:58:07;30.77;;;18.20;;
40669;SDS011;26355;45.528;9.234;2022-10-04T01:00:44;32.50;;;20.45;;
40669;SDS011;26355;45.528;9.234;2022-10-04T01:03:17;33.00;;;21.02;;
40669;SDS011;26355;45.528;9.234;2022-10-04T01:05:51;28.42;;;19.67;;
40669;SDS011;26355;45.528;9.234;2022-10-04T01:08:24;30.58;;;19.92;;
40669;SDS011;26355;45.528;9.234;2022-10-04T01:10:56;32.75;;;20.85;;
40669;SDS011;26355;45.528;9.234;2022-10-04T01:16:21;33.45;;;22.60;;
40669;SDS011;26355;45.528;9.234;2022-10-04T01:18:50;34.33;;;23.02;;
40669;SDS011;26355;45.528;9.234;2022-10-04T01:23:45;37.75;;;22.85;;
40669;SDS011;26355;45.528;9.234;2022-10-04T01:31:31;34.75;;;23.20;;
40669;SDS011;26355;45.528;9.234;2022-10-04T01:33:58;31.80;;;21.65;;
40669;SDS011;26355;45.528;9.234;2022-10-04T01:36:25;36.20;;;23.40;;
40669;SDS011;26355;45.528;9.234;2022-10-04T01:38:54;34.70;;;22.70;;
40669;SDS011;26355;45.528;9.234;2022-10-04T01:41:22;31.48;;;21.13;;
40669;SDS011;26355;45.528;9.234;2022-10-04T01:43:53;34.30;;;21.90;;
40669;SDS011;26355;45.528;9.234;2022-10-04T01:46:24;35.10;;;22.92;;
40669;SDS011;26355;45.528;9.234;2022-10-04T01:48:54;32.63;;;21.92;;
40669;SDS011;26355;45.528;9.234;2022-10-04T01:53:50;32.00;;;21.45;;
40669;SDS011;26355;45.528;9.234;2022-10-04T01:56:35;35.17;;;21.60;;
40669;SDS011;26355;45.528;9.234;2022-10-04T01:59:20;32.15;;;21.48;;
40669;SDS011;26355;45.528;9.234;2022-10-04T02:01:58;29.83;;;21.55;;
40669;SDS011;26355;45.528;9.234;2022-10-04T02:04:48;31.08;;;21.27;;
40669;SDS011;26355;45.528;9.234;2022-10-04T02:07:17;29.88;;;20.45;;
40669;SDS011;26355;45.528;9.234;2022-10-04T02:09:44;32.53;;;21.70;;
40669;SDS011;26355;45.528;9.234;2022-10-04T02:12:14;31.80;;;21.42;;
40669;SDS011;26355;45.528;9.234;2022-10-04T02:14:43;31.63;;;20.92;;
40669;SDS011;26355;45.528;9.234;2022-10-04T02:17:24;30.77;;;20.88;;
40669;SDS011;26355;45.528;9.234;2022-10-04T02:19:53;29.23;;;20.17;;
40669;SDS011;26355;45.528;9.234;2022-10-04T02:22:20;27.85;;;19.25;;
40669;SDS011;26355;45.528;9.234;2022-10-04T02:24:47;28.85;;;19.48;;
40669;SDS011;26355;45.528;9.234;2022-10-04T02:27:14;30.08;;;20.38;;
40669;SDS011;26355;45.528;9.234;2022-10-04T02:29:40;27.85;;;19.10;;
40669;SDS011;26355;45.528;9.234;2022-10-04T02:32:07;30.55;;;20.25;;
40669;SDS011;26355;45.528;9.234;2022-10-04T02:34:51;27.00;;;19.27;;
40669;SDS011;26355;45.528;9.234;2022-10-04T02:37:20;29.10;;;20.10;;
40669;SDS011;26355;45.528;9.234;2022-10-04T02:39:48;28.27;;;18.90;;
40669;SDS011;26355;45.528;9.234;2022-10-04T02:47:50;29.48;;;19.02;;
40669;SDS011;26355;45.528;9.234;2022-10-04T02:53:21;28.17;;;18.83;;
40669;SDS011;26355;45.528;9.234;2022-10-04T02:55:51;32.63;;;19.58;;
40669;SDS011;26355;45.528;9.234;2022-10-04T02:58:20;31.85;;;19.73;;
40669;SDS011;26355;45.528;9.234;2022-10-04T03:00:51;31.92;;;20.40;;
40669;SDS011;26355;45.528;9.234;2022-10-04T03:03:44;30.40;;;19.98;;
40669;SDS011;26355;45.528;9.234;2022-10-04T03:06:11;30.55;;;20.33;;
40669;SDS011;26355;45.528;9.234;2022-10-04T03:11:07;31.00;;;20.23;;
40669;SDS011;26355;45.528;9.234;2022-10-04T03:13:35;29.38;;;20.15;;
40669;SDS011;26355;45.528;9.234;2022-10-04T03:16:07;30.98;;;20.13;;
40669;SDS011;26355;45.528;9.234;2022-10-04T03:18:33;28.73;;;19.13;;
40669;SDS011;26355;45.528;9.234;2022-10-04T03:21:01;28.88;;;19.08;;
40669;SDS011;26355;45.528;9.234;2022-10-04T03:23:31;29.27;;;19.15;;
40669;SDS011;26355;45.528;9.234;2022-10-04T03:28:50;30.98;;;20.95;;
40669;SDS011;26355;45.528;9.234;2022-10-04T03:31:16;29.48;;;20.15;;
40669;SDS011;26355;45.528;9.234;2022-10-04T03:36:11;28.92;;;18.95;;
40669;SDS011;26355;45.528;9.234;2022-10-04T03:38:41;29.83;;;20.33;;
40669;SDS011;26355;45.528;9.234;2022-10-04T03:41:09;34.33;;;19.90;;
40669;SDS011;26355;45.528;9.234;2022-10-04T03:43:37;32.83;;;20.40;;
40669;SDS011;26355;45.528;9.234;2022-10-04T03:46:08;31.92;;;20.67;;
40669;SDS011;26355;45.528;9.234;2022-10-04T03:48:35;30.13;;;18.65;;
40669;SDS011;26355;45.528;9.234;2022-10-04T03:51:04;29.20;;;19.92;;
40669;SDS011;26355;45.528;9.234;2022-10-04T03:53:41;27.50;;;18.88;;
40669;SDS011;26355;45.528;9.234;2022-10-04T03:56:45;28.88;;;19.38;;
40669;SDS011;26355;45.528;9.234;2022-10-04T03:59:04;28.20;;;18.30;;
40669;SDS011;26355;45.528;9.234;2022-10-04T04:01:41;31.30;;;20.85;;
40669;SDS011;26355;45.528;9.234;2022-10-04T04:04:15;27.23;;;17.60;;
40669;SDS011;26355;45.528;9.234;2022-10-04T04:09:16;32.33;;;19.58;;
40669;SDS011;26355;45.528;9.234;2022-10-04T04:12:00;28.65;;;18.77;;
40669;SDS011;26355;45.528;9.234;2022-10-04T04:14:30;29.40;;;19.13;;
40669;SDS011;26355;45.528;9.234;2022-10-04T04:17:16;27.83;;;18.75;;
40669;SDS011;26355;45.528;9.234;2022-10-04T04:19:50;29.00;;;19.65;;
40669;SDS011;26355;45.528;9.234;2022-10-04T04:22:17;30.30;;;19.58;;
40669;SDS011;26355;45.528;9.234;2022-10-04T04:24:43;31.10;;;20.88;;
40669;SDS011;26355;45.528;9.234;2022-10-04T04:27:10;28.17;;;18.48;;
40669;SDS011;26355;45.528;9.234;2022-10-04T04:29:44;31.30;;;18.73;;
40669;SDS011;26355;45.528;9.234;2022-10-04T04:37:21;29.77;;;18.53;;
40669;SDS011;26355;45.528;9.234;2022-10-04T04:39:48;29.92;;;18.73;;
40669;SDS011;26355;45.528;9.234;2022-10-04T04:42:19;27.20;;;17.25;;
40669;SDS011;26355;45.528;9.234;2022-10-04T04:44:56;29.38;;;19.23;;
40669;SDS011;26355;45.528;9.234;2022-10-04T04:47:47;30.13;;;17.85;;
40669;SDS011;26355;45.528;9.234;2022-10-04T04:52:43;28.38;;;18.23;;
40669;SDS011;26355;45.528;9.234;2022-10-04T04:55:19;27.95;;;17.60;;
40669;SDS011;26355;45.528;9.234;2022-10-04T04:57:48;30.15;;;19.13;;
40669;SDS011;26355;45.528;9.234;2022-10-04T05:00:16;28.38;;;17.98;;
40669;SDS011;26355;45.528;9.234;2022-10-04T05:02:51;29.85;;;18.45;;
40669;SDS011;26355;45.528;9.234;2022-10-04T05:08:02;29.45;;;17.88;;
40669;SDS011;26355;45.528;9.234;2022-10-04T05:10:34;28.80;;;17.35;;
40669;SDS011;26355;45.528;9.234;2022-10-04T05:13:00;27.48;;;17.08;;
40669;SDS011;26355;45.528;9.234;2022-10-04T05:15:30;28.95;;;18.20;;
40669;SDS011;26355;45.528;9.234;2022-10-04T05:18:01;29.48;;;17.38;;
40669;SDS011;26355;45.528;9.234;2022-10-04T05:20:42;29.40;;;17.70;;
40669;SDS011;26355;45.528;9.234;2022-10-04T05:23:12;30.30;;;18.27;;
40669;SDS011;26355;45.528;9.234;2022-10-04T05:25:38;31.80;;;18.73;;
40669;SDS011;26355;45.528;9.234;2022-10-04T05:28:04;29.30;;;18.08;;
40669;SDS011;26355;45.528;9.234;2022-10-04T05:30:51;26.80;;;17.50;;
40669;SDS011;26355;45.528;9.234;2022-10-04T05:33:37;28.88;;;18.40;;
40669;SDS011;26355;45.528;9.234;2022-10-04T05:38:39;27.23;;;16.48;;
40669;SDS011;26355;45.528;9.234;2022-10-04T05:43:43;28.42;;;17.25;;
40669;SDS011;26355;45.528;9.234;2022-10-04T05:48:45;27.92;;;15.95;;
40669;SDS011;26355;45.528;9.234;2022-10-04T05:51:24;26.20;;;14.45;;
40669;SDS011;26355;45.528;9.234;2022-10-04T05:53:56;24.67;;;14.48;;
40669;SDS011;26355;45.528;9.234;2022-10-04T06:01:22;27.42;;;16.50;;
40669;SDS011;26355;45.528;9.234;2022-10-04T06:04:03;25.92;;;16.70;;
40669;SDS011;26355;45.528;9.234;2022-10-04T06:12:31;26.08;;;16.80;;
40669;SDS011;26355;45.528;9.234;2022-10-04T06:20:45;31.27;;;18.17;;
40669;SDS011;26355;45.528;9.234;2022-10-04T06:23:29;25.65;;;17.45;;
40669;SDS011;26355;45.528;9.234;2022-10-04T06:26:03;28.92;;;17.80;;
40669;SDS011;26355;45.528;9.234;2022-10-04T06:28:34;28.98;;;18.92;;
40669;SDS011;26355;45.528;9.234;2022-10-04T06:34:39;28.90;;;18.23;;
40669;SDS011;26355;45.528;9.234;2022-10-04T06:53:12;27.70;;;17.30;;
40669;SDS011;26355;45.528;9.234;2022-10-04T06:56:02;27.85;;;16.08;;
40669;SDS011;26355;45.528;9.234;2022-10-04T07:02:19;27.67;;;14.93;;
40669;SDS011;26355;45.528;9.234;2022-10-04T07:04:48;29.77;;;16.73;;
40669;SDS011;26355;45.528;9.234;2022-10-04T07:12:49;26.90;;;16.77;;
40669;SDS011;26355;45.528;9.234;2022-10-04T07:15:33;26.00;;;15.32;;
40669;SDS011;26355;45.528;9.234;2022-10-04T07:18:11;29.38;;;15.57;;
40669;SDS011;26355;45.528;9.234;2022-10-04T07:20:42;26.95;;;15.15;;
40669;SDS011;26355;45.528;9.234;2022-10-04T07:23:12;28.50;;;14.73;;
40669;SDS011;26355;45.528;9.234;2022-10-04T07:25:47;25.58;;;14.68;;
40669;SDS011;26355;45.528;9.234;2022-10-04T07:28:19;26.35;;;13.40;;
40669;SDS011;26355;45.528;9.234;2022-10-04T07:31:12;27.98;;;15.10;;
40669;SDS011;26355;45.528;9.234;2022-10-04T07:33:45;25.65;;;14.07;;
40669;SDS011;26355;45.528;9.234;2022-10-04T07:36:23;26.85;;;14.05;;
40669;SDS011;26355;45.528;9.234;2022-10-04T07:39:17;24.63;;;14.38;;
40669;SDS011;26355;45.528;9.234;2022-10-04T07:41:59;26.63;;;14.65;;
40669;SDS011;26355;45.528;9.234;2022-10-04T07:44:42;22.95;;;13.43;;
40669;SDS011;26355;45.528;9.234;2022-10-04T07:49:45;25.98;;;14.40;;
40669;SDS011;26355;45.528;9.234;2022-10-04T07:55:35;27.20;;;14.88;;
40669;SDS011;26355;45.528;9.234;2022-10-04T08:04:01;24.67;;;13.15;;
40669;SDS011;26355;45.528;9.234;2022-10-04T08:06:57;24.08;;;12.05;;
40669;SDS011;26355;45.528;9.234;2022-10-04T08:13:14;23.00;;;12.25;;
40669;SDS011;26355;45.528;9.234;2022-10-04T08:23:39;24.45;;;13.80;;
40669;SDS011;26355;45.528;9.234;2022-10-04T08:26:39;23.38;;;11.57;;
40669;SDS011;26355;45.528;9.234;2022-10-04T08:37:44;22.83;;;11.20;;
40669;SDS011;26355;45.528;9.234;2022-10-04T08:40:51;21.25;;;11.65;;
40669;SDS011;26355;45.528;9.234;2022-10-04T08:55:23;22.95;;;11.82;;
40669;SDS011;26355;45.528;9.234;2022-10-04T09:14:28;21.65;;;13.18;;
40669;SDS011;26355;45.528;9.234;2022-10-04T09:28:21;23.13;;;11.40;;
40669;SDS011;26355;45.528;9.234;2022-10-04T09:33:59;22.27;;;12.95;;
40669;SDS011;26355;45.528;9.234;2022-10-04T09:37:05;23.02;;;12.50;;
40669;SDS011;26355;45.528;9.234;2022-10-04T10:10:50;23.48;;;13.27;;
40669;SDS011;26355;45.528;9.234;2022-10-04T10:23:15;24.80;;;14.48;;
40669;SDS011;26355;45.528;9.234;2022-10-04T10:39:59;24.60;;;14.98;;
40669;SDS011;26355;45.528;9.234;2022-10-04T11:19:04;26.63;;;17.65;;
40669;SDS011;26355;45.528;9.234;2022-10-04T11:28:05;28.45;;;20.10;;
40669;SDS011;26355;45.528;9.234;2022-10-04T11:42:09;28.67;;;21.35;;
40669;SDS011;26355;45.528;9.234;2022-10-04T11:47:44;30.17;;;22.00;;
40669;SDS011;26355;45.528;9.234;2022-10-04T11:58:27;30.10;;;21.88;;
40669;SDS011;26355;45.528;9.234;2022-10-04T12:06:50;29.55;;;23.00;;
40669;SDS011;26355;45.528;9.234;2022-10-04T12:09:25;31.00;;;23.98;;
40669;SDS011;26355;45.528;9.234;2022-10-04T12:31:35;34.88;;;26.73;;
40669;SDS011;26355;45.528;9.234;2022-10-04T12:42:03;37.90;;;29.98;;
40669;SDS011;26355;45.528;9.234;2022-10-04T12:44:38;37.15;;;28.98;;
40669;SDS011;26355;45.528;9.234;2022-10-04T12:52:20;39.42;;;32.85;;
40669;SDS011;26355;45.528;9.234;2022-10-04T12:58:11;38.83;;;31.85;;
40669;SDS011;26355;45.528;9.234;2022-10-04T13:00:54;36.47;;;29.38;;
40669;SDS011;26355;45.528;9.234;2022-10-04T13:12:33;39.90;;;30.92;;
40669;SDS011;26355;45.528;9.234;2022-10-04T13:15:23;37.55;;;29.58;;
40669;SDS011;26355;45.528;9.234;2022-10-04T13:20:39;39.88;;;29.92;;
40669;SDS011;26355;45.528;9.234;2022-10-04T13:26:36;39.05;;;29.70;;
40669;SDS011;26355;45.528;9.234;2022-10-04T13:34:27;39.83;;;30.40;;
40669;SDS011;26355;45.528;9.234;2022-10-04T13:48:22;37.85;;;28.58;;
40669;SDS011;26355;45.528;9.234;2022-10-04T13:51:21;35.38;;;27.98;;
40669;SDS011;26355;45.528;9.234;2022-10-04T13:54:45;38.08;;;27.65;;
40669;SDS011;26355;45.528;9.234;2022-10-04T13:57:56;36.30;;;27.25;;
40669;SDS011;26355;45.528;9.234;2022-10-04T14:26:53;37.10;;;27.23;;
40669;SDS011;26355;45.528;9.234;2022-10-04T14:31:51;36.20;;;26.63;;
40669;SDS011;26355;45.528;9.234;2022-10-04T14:48:37;36.30;;;26.30;;
40669;SDS011;26355;45.528;9.234;2022-10-04T14:54:13;35.63;;;27.23;;
40669;SDS011;26355;45.528;9.234;2022-10-04T14:59:45;36.07;;;26.33;;
40669;SDS011;26355;45.528;9.234;2022-10-04T15:05:40;35.92;;;27.23;;
40669;SDS011;26355;45.528;9.234;2022-10-04T15:11:04;35.63;;;24.88;;
40669;SDS011;26355;45.528;9.234;2022-10-04T15:13:40;34.45;;;26.05;;
40669;SDS011;26355;45.528;9.234;2022-10-04T15:16:35;34.42;;;25.20;;
40669;SDS011;26355;45.528;9.234;2022-10-04T15:19:09;34.60;;;24.98;;
40669;SDS011;26355;45.528;9.234;2022-10-04T15:24:24;37.72;;;25.48;;
40669;SDS011;26355;45.528;9.234;2022-10-04T15:30:00;36.95;;;25.48;;
40669;SDS011;26355;45.528;9.234;2022-10-04T15:32:33;32.30;;;23.25;;
40669;SDS011;26355;45.528;9.234;2022-10-04T15:35:26;34.22;;;24.42;;
40669;SDS011;26355;45.528;9.234;2022-10-04T15:40:58;34.65;;;23.35;;
40669;SDS011;26355;45.528;9.234;2022-10-04T15:43:40;34.53;;;24.55;;
40669;SDS011;26355;45.528;9.234;2022-10-04T16:00:21;32.15;;;21.55;;
40669;SDS011;26355;45.528;9.234;2022-10-04T16:05:41;28.15;;;20.38;;
40669;SDS011;26355;45.528;9.234;2022-10-04T16:13:34;31.10;;;21.10;;
40669;SDS011;26355;45.528;9.234;2022-10-04T16:24:43;29.40;;;19.70;;
40669;SDS011;26355;45.528;9.234;2022-10-04T16:27:18;31.10;;;20.77;;
40669;SDS011;26355;45.528;9.234;2022-10-04T16:38:52;30.90;;;21.30;;
40669;SDS011;26355;45.528;9.234;2022-10-04T16:41:40;31.90;;;22.15;;
40669;SDS011;26355;45.528;9.234;2022-10-04T16:47:21;32.17;;;22.45;;
40669;SDS011;26355;45.528;9.234;2022-10-04T16:49:52;32.78;;;22.20;;
40669;SDS011;26355;45.528;9.234;2022-10-04T17:03:54;32.30;;;22.13;;
40669;SDS011;26355;45.528;9.234;2022-10-04T17:29:06;30.65;;;19.95;;
40669;SDS011;26355;45.528;9.234;2022-10-04T17:40:46;29.20;;;19.30;;
40669;SDS011;26355;45.528;9.234;2022-10-04T17:43:26;30.45;;;20.48;;
40669;SDS011;26355;45.528;9.234;2022-10-04T17:48:45;29.70;;;20.63;;
40669;SDS011;26355;45.528;9.234;2022-10-04T17:51:52;30.63;;;20.58;;
40669;SDS011;26355;45.528;9.234;2022-10-04T17:54:47;32.53;;;20.98;;
40669;SDS011;26355;45.528;9.234;2022-10-04T18:00:13;33.28;;;22.50;;
40669;SDS011;26355;45.528;9.234;2022-10-04T18:02:59;32.78;;;22.23;;
40669;SDS011;26355;45.528;9.234;2022-10-04T18:05:34;36.38;;;23.80;;
40669;SDS011;26355;45.528;9.234;2022-10-04T18:11:05;33.85;;;23.52;;
40669;SDS011;26355;45.528;9.234;2022-10-04T18:13:45;34.08;;;23.27;;
40669;SDS011;26355;45.528;9.234;2022-10-04T18:16:25;32.50;;;22.67;;
40669;SDS011;26355;45.528;9.234;2022-10-04T18:19:36;36.45;;;23.33;;
40669;SDS011;26355;45.528;9.234;2022-10-04T18:22:19;36.42;;;23.23;;
40669;SDS011;26355;45.528;9.234;2022-10-04T18:27:47;34.03;;;22.10;;
40669;SDS011;26355;45.528;9.234;2022-10-04T18:30:23;31.45;;;21.40;;
40669;SDS011;26355;45.528;9.234;2022-10-04T18:32:50;34.22;;;22.75;;
40669;SDS011;26355;45.528;9.234;2022-10-04T18:35:25;32.35;;;23.40;;
40669;SDS011;26355;45.528;9.234;2022-10-04T18:37:54;32.47;;;22.52;;
40669;SDS011;26355;45.528;9.234;2022-10-04T18:40:22;35.83;;;23.20;;
40669;SDS011;26355;45.528;9.234;2022-10-04T18:43:29;34.08;;;24.23;;
40669;SDS011;26355;45.528;9.234;2022-10-04T18:46:17;34.30;;;25.77;;
40669;SDS011;26355;45.528;9.234;2022-10-04T18:48:52;35.95;;;25.25;;
40669;SDS011;26355;45.528;9.234;2022-10-04T18:51:27;38.70;;;26.80;;
40669;SDS011;26355;45.528;9.234;2022-10-04T18:56:59;38.03;;;25.83;;
40669;SDS011;26355;45.528;9.234;2022-10-04T19:00:29;37.88;;;26.85;;
40669;SDS011;26355;45.528;9.234;2022-10-04T19:13:52;35.53;;;25.77;;
40669;SDS011;26355;45.528;9.234;2022-10-04T19:22:04;35.65;;;26.77;;
40669;SDS011;26355;45.528;9.234;2022-10-04T19:25:06;38.92;;;27.98;;
40669;SDS011;26355;45.528;9.234;2022-10-04T19:27:38;37.42;;;27.63;;
40669;SDS011;26355;45.528;9.234;2022-10-04T19:33:05;36.38;;;26.83;;
40669;SDS011;26355;45.528;9.234;2022-10-04T19:38:46;37.13;;;27.75;;
40669;SDS011;26355;45.528;9.234;2022-10-04T19:46:41;39.33;;;28.27;;
40669;SDS011;26355;45.528;9.234;2022-10-04T19:49:24;34.90;;;27.33;;
40669;SDS011;26355;45.528;9.234;2022-10-04T19:52:30;37.20;;;27.67;;
40669;SDS011;26355;45.528;9.234;2022-10-04T20:00:51;37.53;;;28.13;;
40669;SDS011;26355;45.528;9.234;2022-10-04T20:03:17;39.13;;;27.17;;
40669;SDS011;26355;45.528;9.234;2022-10-04T20:05:46;38.85;;;29.50;;
40669;SDS011;26355;45.528;9.234;2022-10-04T20:08:14;37.65;;;28.23;;
40669;SDS011;26355;45.528;9.234;2022-10-04T20:11:13;38.78;;;28.35;;
40669;SDS011;26355;45.528;9.234;2022-10-04T20:13:49;39.53;;;29.02;;
40669;SDS011;26355;45.528;9.234;2022-10-04T20:17:01;40.08;;;28.33;;
40669;SDS011;26355;45.528;9.234;2022-10-04T20:32:08;41.08;;;30.98;;
40669;SDS011;26355;45.528;9.234;2022-10-04T20:37:06;42.45;;;29.08;;
40669;SDS011;26355;45.528;9.234;2022-10-04T20:44:54;43.35;;;30.27;;
40669;SDS011;26355;45.528;9.234;2022-10-04T20:50:11;41.58;;;30.67;;
40669;SDS011;26355;45.528;9.234;2022-10-04T20:52:47;43.38;;;31.38;;
40669;SDS011;26355;45.528;9.234;2022-10-04T20:55:19;42.22;;;31.27;;
40669;SDS011;26355;45.528;9.234;2022-10-04T20:57:51;42.38;;;31.35;;
40669;SDS011;26355;45.528;9.234;2022-10-04T21:00:19;44.20;;;32.88;;
40669;SDS011;26355;45.528;9.234;2022-10-04T21:02:47;47.15;;;33.38;;
40669;SDS011;26355;45.528;9.234;2022-10-04T21:05:16;44.40;;;32.53;;
40669;SDS011;26355;45.528;9.234;2022-10-04T21:07:48;44.45;;;31.85;;
40669;SDS011;26355;45.528;9.234;2022-10-04T21:10:15;42.20;;;30.70;;
40669;SDS011;26355;45.528;9.234;2022-10-04T21:12:42;42.72;;;32.25;;
40669;SDS011;26355;45.528;9.234;2022-10-04T21:17:39;43.38;;;31.63;;
40669;SDS011;26355;45.528;9.234;2022-10-04T21:20:11;44.42;;;32.88;;
40669;SDS011;26355;45.528;9.234;2022-10-04T21:23:33;44.92;;;32.05;;
40669;SDS011;26355;45.528;9.234;2022-10-04T21:28:42;44.28;;;33.22;;
40669;SDS011;26355;45.528;9.234;2022-10-04T21:31:07;43.33;;;33.22;;
40669;SDS011;26355;45.528;9.234;2022-10-04T21:33:33;44.78;;;32.40;;
40669;SDS011;26355;45.528;9.234;2022-10-04T21:36:00;42.67;;;32.95;;
40669;SDS011;26355;45.528;9.234;2022-10-04T21:38:26;43.00;;;31.42;;
40669;SDS011;26355;45.528;9.234;2022-10-04T21:40:52;46.13;;;33.85;;
40669;SDS011;26355;45.528;9.234;2022-10-04T21:43:19;43.80;;;32.20;;
40669;SDS011;26355;45.528;9.234;2022-10-04T21:45:45;43.17;;;32.85;;
40669;SDS011;26355;45.528;9.234;2022-10-04T21:48:11;43.65;;;33.53;;
40669;SDS011;26355;45.528;9.234;2022-10-04T21:50:37;50.85;;;34.67;;
40669;SDS011;26355;45.528;9.234;2022-10-04T21:53:02;46.38;;;33.83;;
40669;SDS011;26355;45.528;9.234;2022-10-04T21:55:28;44.92;;;34.20;;
40669;SDS011;26355;45.528;9.234;2022-10-04T21:57:53;48.55;;;34.60;;
40669;SDS011;26355;45.528;9.234;2022-10-04T22:00:19;46.03;;;35.50;;
40669;SDS011;26355;45.528;9.234;2022-10-04T22:02:45;46.50;;;35.28;;
40669;SDS011;26355;45.528;9.234;2022-10-04T22:05:11;47.75;;;37.05;;
40669;SDS011;26355;45.528;9.234;2022-10-04T22:07:36;47.65;;;36.90;;
40669;SDS011;26355;45.528;9.234;2022-10-04T22:10:02;47.40;;;36.20;;
40669;SDS011;26355;45.528;9.234;2022-10-04T22:12:28;49.42;;;38.42;;
40669;SDS011;26355;45.528;9.234;2022-10-04T22:14:54;49.38;;;36.88;;
40669;SDS011;26355;45.528;9.234;2022-10-04T22:17:19;51.33;;;38.45;;
40669;SDS011;26355;45.528;9.234;2022-10-04T22:19:45;53.40;;;39.15;;
40669;SDS011;26355;45.528;9.234;2022-10-04T22:22:14;52.78;;;37.95;;
40669;SDS011;26355;45.528;9.234;2022-10-04T22:24:40;49.00;;;38.38;;
40669;SDS011;26355;45.528;9.234;2022-10-04T22:27:25;50.87;;;38.00;;
40669;SDS011;26355;45.528;9.234;2022-10-04T22:29:53;49.28;;;38.60;;
40669;SDS011;26355;45.528;9.234;2022-10-04T22:32:21;51.58;;;38.47;;
40669;SDS011;26355;45.528;9.234;2022-10-04T22:34:57;51.65;;;38.67;;
40669;SDS011;26355;45.528;9.234;2022-10-04T22:37:27;48.25;;;37.55;;
40669;SDS011;26355;45.528;9.234;2022-10-04T22:39:54;49.70;;;38.53;;
40669;SDS011;26355;45.528;9.234;2022-10-04T22:42:20;53.65;;;40.22;;
40669;SDS011;26355;45.528;9.234;2022-10-04T22:44:51;53.78;;;40.30;;
40669;SDS011;26355;45.528;9.234;2022-10-04T22:47:17;54.25;;;41.33;;
40669;SDS011;26355;45.528;9.234;2022-10-04T22:49:44;50.40;;;39.60;;
40669;SDS011;26355;45.528;9.234;2022-10-04T22:52:21;49.67;;;38.95;;
40669;SDS011;26355;45.528;9.234;2022-10-04T22:54:49;49.95;;;39.50;;
40669;SDS011;26355;45.528;9.234;2022-10-04T22:57:22;52.72;;;39.28;;
40669;SDS011;26355;45.528;9.234;2022-10-04T22:59:49;52.22;;;41.00;;
40669;SDS011;26355;45.528;9.234;2022-10-04T23:02:20;55.13;;;40.92;;
40669;SDS011;26355;45.528;9.234;2022-10-04T23:04:54;51.22;;;39.55;;
40669;SDS011;26355;45.528;9.234;2022-10-04T23:07:22;50.92;;;40.72;;
40669;SDS011;26355;45.528;9.234;2022-10-04T23:09:47;50.47;;;40.40;;
40669;SDS011;26355;45.528;9.234;2022-10-04T23:12:13;53.15;;;41.33;;
40669;SDS011;26355;45.528;9.234;2022-10-04T23:14:39;50.15;;;39.10;;
40669;SDS011;26355;45.528;9.234;2022-10-04T23:17:25;52.72;;;38.42;;
40669;SDS011;26355;45.528;9.234;2022-10-04T23:20:00;52.55;;;40.85;;
40669;SDS011;26355;45.528;9.234;2022-10-04T23:22:36;49.95;;;38.97;;
40669;SDS011;26355;45.528;9.234;2022-10-04T23:25:05;51.67;;;40.33;;
40669;SDS011;26355;45.528;9.234;2022-10-04T23:27:41;51.88;;;40.80;;
40669;SDS011;26355;45.528;9.234;2022-10-04T23:30:09;55.92;;;42.90;;
40669;SDS011;26355;45.528;9.234;2022-10-04T23:32:38;52.90;;;43.00;;
40669;SDS011;26355;45.528;9.234;2022-10-04T23:35:05;55.22;;;44.20;;
40669;SDS011;26355;45.528;9.234;2022-10-04T23:37:43;53.88;;;44.00;;
40669;SDS011;26355;45.528;9.234;2022-10-04T23:40:10;51.17;;;43.17;;
40669;SDS011;26355;45.528;9.234;2022-10-04T23:42:37;58.88;;;45.75;;
40669;SDS011;26355;45.528;9.234;2022-10-04T23:45:07;54.08;;;44.35;;
40669;SDS011;26355;45.528;9.234;2022-10-04T23:47:41;57.00;;;44.00;;
40669;SDS011;26355;45.528;9.234;2022-10-04T23:50:49;57.08;;;45.58;;
40669;SDS011;26355;45.528;9.234;2022-10-04T23:52:59;59.00;;;46.13;;
40669;SDS011;26355;45.528;9.234;2022-10-04T23:55:37;54.00;;;44.15;;
40669;SDS011;26355;45.528;9.234;2022-10-04T23:58:13;60.15;;;45.90;;
